Spriggs Payne Airport

Jump to: basic info | weather | frequencies | runways | comments

Related pages: nearby airports | nearby navaids | notams | map

Basic information (top)

Codes: MLW GLMR
Location: lon 6.289060, lat -10.758700, elev 25 ft / 8 m msl
Status: medium_airport
Scheduled airline service: yes
Links: Wikipedia Mobile

Weather (top)

Current conditions for Roberts International Airport 24nm (44km) E (rec'd 2015/01/31 11:30Z):

GLRB 311130Z 23004KT 9999 BKN016 29/24 Q1013 NOSIG

Airport forecast for Roberts International Airport 24nm (44km) E (rec'd 2015/01/30 12:51Z):

TAF GLRB 301000Z 3012/3118 24012KT 9999 BKN020 
      BECMG 3014/3016 22008KT 9999 SCT022 
      TEMPO 3017/3021 20009KT 9000 
      BECMG 3022/3100 00000KT 8000

Frequencies (top)

Verify before use: may be inaccurate or out of date.

APP: 124.5 MHz (ROBERTS APP)
TWR: 118.7 MHz (SPRIGGS TWR)

Runways (top)

05/23: 6,000 x 100 ft (1,829 x 30 m) — paved — lighted — threshold 05 displaced 200 ft (61 m) — threshold 23 displaced 200 ft (61 m)

Latest comments (top)

No comments yet for Spriggs Payne Airport

More... (top)

See also NOTAMs and nearby airports and navaids, or visit the Spriggs Payne Airport page at the main OurAirports website..